x

Stannard Rock, Mi (stdm4) Weather Station

10:00pm - Wed 24th Aug 2016 All times are CDT. -5 hours from GMT.

  • Wind
    16mph, 17mph gusts
  • Air Temp 69°f
  • Sea Pressure 1009.5mb
  • Stannard Rock, Mi
  • Stannard Rock, Mi

More Historic Weather Station data

Upgrade to MSW Pro to gain access to the past 30 days of data for over 8000 Wavebouys and Weather Stations around the globe.

Join Pro

Comparision Forecast

View Surf forecast
   
Wed 08/24 10:00pm 16 17 mph 1009.5mb 69f
9:00pm 10
mph
1009.8mb 69f
8:00pm 6
mph
1009.8mb 68f
7:00pm 5 6 mph 1009.2mb 69f
6:00pm 8
mph
1008.9mb 68f
5:00pm 9 10 mph 1008.8mb 68f
4:00pm 6
mph
1008.4mb 67f
3:00pm 8
mph
1008.3mb 67f
2:00pm 5 6 mph 1008.4mb 66f
1:00pm 8 9 mph 1008.9mb 65f
12:00pm 15
mph
1009mb 66f
11:00am 15
mph
1009.3mb 65f
10:00am 6 7 mph 1009.9mb 65f
9:00am 24 25 mph 1010.1mb 65f
8:00am 14 21 mph 1011.2mb 65f
7:00am 25 28 mph 1010.7mb 66f
6:00am 17 20 mph 1011.3mb 65f
5:00am 21 22 mph 1012mb 66f
4:00am 24 25 mph 1012.7mb 66f
3:00am 23 24 mph 1013mb 67f
2:00am 21 22 mph 1012.9mb 67f
1:00am 20 21 mph 1013.3mb 67f
12:00am 24 25 mph 1013.3mb 68f
Tue 08/23 11:00pm 26 28 mph 1013.4mb 69f
10:00pm 26 28 mph 1013.5mb 69f
9:00pm 26 28 mph 1014.1mb 72f
8:00pm 23 24 mph 1014.1mb 73f
7:00pm 28 29 mph 1013.8mb 74f
6:00pm 29
mph
1013.6mb 74f
5:00pm 26 28 mph 1013.5mb 73f
4:00pm 26
mph
1013.6mb 73f
3:00pm 22 24 mph 1014mb 70f
2:00pm 21 22 mph 1014.6mb 69f
1:00pm 22 23 mph 1015mb 71f
12:00pm 22 23 mph 1015.3mb 69f
11:00am 22
mph
1015.2mb 67f
10:00am 20
mph
1015.6mb 66f
9:00am 18 20 mph 1015.3mb 65f
8:00am 17 18 mph 1015.5mb 66f
7:00am 23 24 mph 1015.1mb 68f
6:00am 22 23 mph 1014.8mb 67f
5:00am 23 24 mph 1014.4mb 67f
4:00am 29 31 mph 1014.2mb 66f
3:00am 30 32 mph 1014.2mb 67f
2:00am 29 31 mph 1014.1mb 67f
1:00am 30 31 mph 1013.9mb 67f
12:00am 31 33 mph 1014mb 69f
Mon 08/22 11:00pm 26 29 mph 1014.3mb 68f
10:00pm 29 30 mph 1014.2mb 68f
9:00pm 30 31 mph 1013.9mb 69f
8:00pm 24 25 mph 1013.3mb 69f
7:00pm 30 31 mph 1012.8mb 70f
6:00pm 26 28 mph 1012.8mb 70f
5:00pm 26 28 mph 1013.5mb 69f
4:00pm 25 26 mph 1014.1mb 68f
3:00pm 22 23 mph 1014.7mb 68f
2:00pm 22 23 mph 1015.5mb 66f
1:00pm 20 21 mph 1015.9mb 65f
12:00pm 20 21 mph 1016.4mb 63f
11:00am 14 15 mph 1017mb 63f
10:00am 14 15 mph 1017.1mb 63f
9:00am 14 15 mph 1016.9mb 62f
8:00am 17 18 mph 1016.9mb 62f
7:00am 17 18 mph 1016.4mb 62f
6:00am 15 18 mph 1016mb 64f
5:00am 24 26 mph 1015.6mb 63f
4:00am 18 20 mph 1015.6mb 63f
3:00am 20 21 mph 1015.3mb 63f
2:00am 18 20 mph 1015.2mb 63f
1:00am 20 22 mph 1014.9mb 63f
12:00am 22 23 mph 1014.5mb 64f
Sun 08/21 10:00pm 26 28 mph 1013.7mb 64f
9:00pm 25 28 mph 1013.6mb 64f
8:00pm 24 26 mph 1012.9mb 64f
7:00pm 23 26 mph 1012.3mb 64f
6:00pm 22 24 mph 1012.3mb 64f
5:00pm 21 23 mph 1012.2mb 63f
4:00pm 17 18 mph 1012.1mb 62f
3:00pm 20 21 mph 1011.9mb 62f
2:00pm 22 23 mph 1011.5mb 61f
1:00pm 21 22 mph 1011mb 60f
12:00pm 22 23 mph 1010.2mb 60f
11:00am 21 24 mph 1009.5mb 60f
10:00am 23 25 mph 1008.8mb 60f
9:00am 24 26 mph 1007.9mb 60f
8:00am 30 32 mph 1006.9mb 59f
7:00am 30 32 mph 1005.8mb 59f
6:00am 29 33 mph 1004.8mb 59f
5:00am 37 40 mph 1003.8mb 57f